Tour Pomerol — 9HA2543 — position and weather

sailwx.info

Track history (hours):
 
Tides and Currents Weather Stations Pressure Air Temp Water Temp Dewpoint Dewpoint Depression Visibility Wind Speed Wind Dir Waves Ship Positions

Tour Pomerol

Last reported at 2017-Oct-18 06:00 UTC. Time now 2017-Oct-18 15:17 UTC.
Position N 25°39' W 016°20'.

Length 120 m; draft 7.6 m.

Type: Ship (hazmat cat B). MMSI: 248842000.

Date/timePositionNaut miles runAvg speedWind from/ knotsBaromVisibWave heightAir tempDewpointWater temp
2017-Oct-18 06:00N 25°39' W 016°20'814.7
2017-Oct-18 05:26N 25°46' W 016°16'814.9
2017-Oct-18 04:55N 25°53' W 016°12'11015.1
2017-Oct-17 21:35N 27°31' W 015°15'215.3
2017-Oct-17 21:29N 27°32' W 015°15'715.0
2017-Oct-17 21:00N 27°40' W 015°15'714.6
2017-Oct-17 20:31N 27°47' W 015°15'714.7
2017-Oct-17 20:01N 27°54' W 015°15'714.4
2017-Oct-17 19:31N 28°01' W 015°17'714.1
2017-Oct-17 19:00N 28°06' W 015°22'4 7.1
2017-Oct-17 18:30N 28°10' W 015°24'0 0.0
2017-Oct-17 17:58N 28°10' W 015°24'0 0.0
2017-Oct-17 17:28N 28°10' W 015°24'0 0.0
2017-Oct-17 16:58N 28°10' W 015°24'0 0.0
2017-Oct-17 16:28N 28°10' W 015°24'0 0.0
2017-Oct-17 15:58N 28°10' W 015°24'0 0.0
2017-Oct-17 15:16N 28°10' W 015°24'0 0.0
2017-Oct-17 14:58N 28°10' W 015°24'0 0.0
2017-Oct-17 14:28N 28°10' W 015°24'0 0.0
2017-Oct-17 13:46N 28°10' W 015°24'0 0.0
2017-Oct-17 13:28N 28°10' W 015°24'0 0.0
2017-Oct-17 12:58N 28°10' W 015°24'0 0.0
2017-Oct-17 12:28N 28°10' W 015°24'0 0.0
2017-Oct-17 11:49N 28°10' W 015°24'0 0.0
2017-Oct-17 11:30N 28°10' W 015°24'1 1.6
2017-Oct-17 11:00N 28°09' W 015°23'1 2.1
2017-Oct-17 10:30N 28°09' W 015°22'1 2.9
2017-Oct-17 10:00N 28°09' W 015°21'0 0.4
2017-Oct-17 09:30N 28°09' W 015°20'713.7
2017-Oct-17 09:00N 28°14' W 015°15'714.3
2017-Oct-17 08:30N 28°19' W 015°10'714.7
2017-Oct-17 08:00N 28°24' W 015°04'714.7
2017-Oct-17 07:30N 28°30' W 014°58'714.4
2017-Oct-17 07:00N 28°35' W 014°52'714.5
2017-Oct-17 06:30N 28°40' W 014°46'714.6
2017-Oct-17 06:00N 28°45' W 014°40'715.0
2017-Oct-17 05:30N 28°50' W 014°34'814.9
2017-Oct-17 04:56N 28°56' W 014°28'814.8
2017-Oct-17 04:24N 29°02' W 014°21'614.8
2017-Oct-17 04:00N 29°06' W 014°17'714.7
2017-Oct-17 03:30N 29°11' W 014°11'714.4
2017-Oct-17 03:00N 29°16' W 014°05'714.6
2017-Oct-17 02:30N 29°22' W 013°59'714.9
2017-Oct-17 02:00N 29°27' W 013°53'714.6
2017-Oct-17 01:30N 29°32' W 013°47'714.5
2017-Oct-17 01:00N 29°38' W 013°41'714.5
2017-Oct-17 00:30N 29°43' W 013°36'714.3
2017-Oct-17 00:00N 29°48' W 013°30'714.3
2017-Oct-16 23:30N 29°53' W 013°24'714.2
2017-Oct-16 23:00N 29°58' W 013°18'714.2
2017-Oct-16 22:30N 30°03' W 013°12'714.1
2017-Oct-16 22:00N 30°08' W 013°07'714.1
2017-Oct-16 21:30N 30°13' W 013°01'713.9
2017-Oct-16 21:00N 30°18' W 012°55'713.7
2017-Oct-16 20:31N 30°23' W 012°50'714.0
2017-Oct-16 20:01N 30°28' W 012°44'714.0
2017-Oct-16 19:30N 30°33' W 012°38'714.0
2017-Oct-16 19:00N 30°38' W 012°32'714.1
2017-Oct-16 18:30N 30°43' W 012°27'714.3
2017-Oct-16 18:00N 30°48' W 012°21'1114.2
2017-Oct-16 17:12N 30°56' W 012°12'314.0
2017-Oct-16 17:00N 30°58' W 012°09'714.0
2017-Oct-16 16:30N 31°03' W 012°03'7014.8
2017-Oct-16 11:49N 31°52' W 011°06'814.3
2017-Oct-16 11:17N 31°58' W 010°60'2214.0
2017-Oct-16 09:43N 32°14' W 010°42'514.1
2017-Oct-16 09:23N 32°17' W 010°38'22314.5
2017-Oct-15 18:03N 34°55' W 007°30'614.8
2017-Oct-15 17:37N 34°60' W 007°25'214.8
2017-Oct-15 17:30N 35°01' W 007°23'714.6
2017-Oct-15 17:00N 35°06' W 007°17'1614.7
2017-Oct-15 15:54N 35°18' W 007°03'614.7
2017-Oct-15 15:31N 35°22' W 006°58'714.6
2017-Oct-15 15:01N 35°27' W 006°52'1514.7
2017-Oct-15 13:59N 35°37' W 006°38'1014.6
2017-Oct-15 13:18N 35°45' W 006°31'1614.5
2017-Oct-15 12:10N 35°56' W 006°16'312.9
2017-Oct-15 11:54N 35°57' W 006°12'3014.4
2017-Oct-15 09:48N 35°57' W 005°35'415.4
2017-Oct-15 09:30N 35°59' W 005°29'714.3
2017-Oct-15 09:00N 36°01' W 005°21'18313.8
2017-Oct-14 19:48N 36°47' W 001°41'1214.8
2017-Oct-14 18:58N 36°55' W 001°30'1314.8
2017-Oct-14 18:04N 37°04' W 001°17'414.9
2017-Oct-14 17:49N 37°07' W 001°14'514.7
2017-Oct-14 17:27N 37°10' W 001°09'714.6
2017-Oct-14 17:00N 37°14' W 001°02'714.6
2017-Oct-14 16:30N 37°19' W 000°55'714.5
2017-Oct-14 16:00N 37°24' W 000°48'714.5
2017-Oct-14 15:29N 37°29' W 000°41'714.6
2017-Oct-14 15:00N 37°33' W 000°35'714.6
2017-Oct-14 14:30N 37°39' W 000°30'714.7
2017-Oct-14 14:00N 37°46' W 000°24'814.8
2017-Oct-14 13:27N 37°52' W 000°19'30814.4
2017-Oct-13 16:08N 41°60' E 003°40'614.7
2017-Oct-13 15:44N 42°04' E 003°45'415.1
2017-Oct-13 15:27N 42°08' E 003°49'715.0
2017-Oct-13 15:00N 42°13' E 003°54'815.0
2017-Oct-13 14:29N 42°19' E 004°01'715.0
2017-Oct-13 14:00N 42°24' E 004°08'714.8
2017-Oct-13 13:30N 42°30' E 004°14'814.5
2017-Oct-13 12:59N 42°36' E 004°20'714.8
2017-Oct-13 12:30N 42°41' E 004°27'714.8
2017-Oct-13 12:00N 42°47' E 004°33'815.2
2017-Oct-13 11:30N 42°53' E 004°40'815.4
2017-Oct-13 11:00N 42°59' E 004°46'815.1
2017-Oct-13 10:30N 43°05' E 004°53'715.0
2017-Oct-13 10:01N 43°10' E 004°59'713.7
2017-Oct-13 09:30N 43°17' E 004°59'611.7
2017-Oct-13 09:00N 43°23' E 004°57'611.4
2017-Oct-13 08:30N 43°25' E 004°50'0 0.0
2017-Oct-12 17:14N 43°26' E 004°50'0 0.0
2017-Oct-12 16:47N 43°26' E 004°50'0 0.0
2017-Oct-12 16:23N 43°26' E 004°50'0 0.0
2017-Oct-12 15:56N 43°26' E 004°50'0 0.0
2017-Oct-12 15:29N 43°26' E 004°50'0 0.0
2017-Oct-12 14:59N 43°26' E 004°50'0 0.0
2017-Oct-12 14:23N 43°26' E 004°50'0 0.0
2017-Oct-12 13:14N 43°26' E 004°50'0 0.0
2017-Oct-12 12:59N 43°26' E 004°50'0 0.0
2017-Oct-12 11:38N 43°26' E 004°50'0 0.0
2017-Oct-12 11:24N 43°26' E 004°50'0 0.0
2017-Oct-12 11:00N 43°26' E 004°50'1 2.0
2017-Oct-12 10:30N 43°25' E 004°51'4 6.7
2017-Oct-12 09:59N 43°24' E 004°56'0 0.2
2017-Oct-12 09:29N 43°24' E 004°56'0 0.1
2017-Oct-12 08:59N 43°24' E 004°56'0 0.1
2017-Oct-12 08:29N 43°24' E 004°55'0 0.1
2017-Oct-12 07:59N 43°24' E 004°56'0 0.0
2017-Oct-12 07:29N 43°24' E 004°56'0 0.0
2017-Oct-12 06:59N 43°24' E 004°55'0 0.0
2017-Oct-12 05:59N 43°24' E 004°56'0 0.0
2017-Oct-12 05:26N 43°24' E 004°56'0 0.0
2017-Oct-12 04:50N 43°24' E 004°55'0 0.0
2017-Oct-12 04:26N 43°24' E 004°55'0 0.0
2017-Oct-12 03:50N 43°24' E 004°55'0 0.0
2017-Oct-12 03:29N 43°24' E 004°56'0 0.0
2017-Oct-12 02:41N 43°24' E 004°55'0 0.0
2017-Oct-12 02:26N 43°24' E 004°55'0 0.0
2017-Oct-12 01:53N 43°24' E 004°56'0 0.0
2017-Oct-12 00:56N 43°24' E 004°55'0 0.0
2017-Oct-12 00:23N 43°24' E 004°55'0 0.0
2017-Oct-11 23:56N 43°24' E 004°55'0 0.0
2017-Oct-11 23:23N 43°24' E 004°55'0 0.0
2017-Oct-11 22:35N 43°24' E 004°55'0 0.0
2017-Oct-11 22:29N 43°24' E 004°55'0 0.0
2017-Oct-11 21:59N 43°24' E 004°55'0 0.1
2017-Oct-11 21:27N 43°24' E 004°56'510.1
2017-Oct-11 21:00N 43°20' E 004°59'36114.9
2017-Oct-10 20:45N 38°28' E 000°18'414.9
2017-Oct-10 20:30N 38°26' E 000°14'4014.7
2017-Oct-10 17:48N 37°53' W 000°14'814.7
2017-Oct-10 17:17N 37°47' W 000°19'414.7
2017-Oct-10 17:01N 37°43' W 000°22'714.6
2017-Oct-10 16:31N 37°37' W 000°27'714.4
2017-Oct-10 16:00N 37°32' W 000°33'714.5
2017-Oct-10 15:30N 37°27' W 000°40'714.7
2017-Oct-10 15:00N 37°22' W 000°47'30813.7
2017-Oct-09 16:32N 35°29' W 006°42'013.5
2017-Oct-09 16:30N 35°28' W 006°43'713.4
2017-Oct-09 16:00N 35°23' W 006°48'713.4
2017-Oct-09 15:30N 35°18' W 006°54'713.5
2017-Oct-09 15:00N 35°14' W 006°59'713.3
2017-Oct-09 14:30N 35°09' W 007°05'713.8
2017-Oct-09 13:59N 35°04' W 007°11'9914.1
2017-Oct-09 07:00N 33°50' W 008°31'  
Track history (hours):
 
Tides and Currents Weather Stations Pressure Air Temp Water Temp Dewpoint Dewpoint Depression Visibility Wind Speed Wind Dir Waves Ship Positions

Tour Pomerol

Last reported at 2017-Oct-18 06:00 UTC. Time now 2017-Oct-18 15:17 UTC.
Position N 25°39' W 016°20'.

Length 120 m; draft 7.6 m.

Type: Ship (hazmat cat B). MMSI: 248842000.

Date/timePositionNaut miles runAvg speedWind from/ knotsBaromVisibWave heightAir tempDewpointWater temp
2017-Oct-18 06:00N 25°39' W 016°20'814.7
2017-Oct-18 05:26N 25°46' W 016°16'814.9
2017-Oct-18 04:55N 25°53' W 016°12'11015.1
2017-Oct-17 21:35N 27°31' W 015°15'215.3
2017-Oct-17 21:29N 27°32' W 015°15'715.0
2017-Oct-17 21:00N 27°40' W 015°15'714.6
2017-Oct-17 20:31N 27°47' W 015°15'714.7
2017-Oct-17 20:01N 27°54' W 015°15'714.4
2017-Oct-17 19:31N 28°01' W 015°17'714.1
2017-Oct-17 19:00N 28°06' W 015°22'4 7.1
2017-Oct-17 18:30N 28°10' W 015°24'0 0.0
2017-Oct-17 17:58N 28°10' W 015°24'0 0.0
2017-Oct-17 17:28N 28°10' W 015°24'0 0.0
2017-Oct-17 16:58N 28°10' W 015°24'0 0.0
2017-Oct-17 16:28N 28°10' W 015°24'0 0.0
2017-Oct-17 15:58N 28°10' W 015°24'0 0.0
2017-Oct-17 15:16N 28°10' W 015°24'0 0.0
2017-Oct-17 14:58N 28°10' W 015°24'0 0.0
2017-Oct-17 14:28N 28°10' W 015°24'0 0.0
2017-Oct-17 13:46N 28°10' W 015°24'0 0.0
2017-Oct-17 13:28N 28°10' W 015°24'0 0.0
2017-Oct-17 12:58N 28°10' W 015°24'0 0.0
2017-Oct-17 12:28N 28°10' W 015°24'0 0.0
2017-Oct-17 11:49N 28°10' W 015°24'0 0.0
2017-Oct-17 11:30N 28°10' W 015°24'1 1.6
2017-Oct-17 11:00N 28°09' W 015°23'1 2.1
2017-Oct-17 10:30N 28°09' W 015°22'1 2.9
2017-Oct-17 10:00N 28°09' W 015°21'0 0.4
2017-Oct-17 09:30N 28°09' W 015°20'713.7
2017-Oct-17 09:00N 28°14' W 015°15'714.3
2017-Oct-17 08:30N 28°19' W 015°10'714.7
2017-Oct-17 08:00N 28°24' W 015°04'714.7
2017-Oct-17 07:30N 28°30' W 014°58'714.4
2017-Oct-17 07:00N 28°35' W 014°52'714.5
2017-Oct-17 06:30N 28°40' W 014°46'714.6
2017-Oct-17 06:00N 28°45' W 014°40'715.0
2017-Oct-17 05:30N 28°50' W 014°34'814.9
2017-Oct-17 04:56N 28°56' W 014°28'814.8
2017-Oct-17 04:24N 29°02' W 014°21'614.8
2017-Oct-17 04:00N 29°06' W 014°17'714.7
2017-Oct-17 03:30N 29°11' W 014°11'714.4
2017-Oct-17 03:00N 29°16' W 014°05'714.6
2017-Oct-17 02:30N 29°22' W 013°59'714.9
2017-Oct-17 02:00N 29°27' W 013°53'714.6
2017-Oct-17 01:30N 29°32' W 013°47'714.5
2017-Oct-17 01:00N 29°38' W 013°41'714.5
2017-Oct-17 00:30N 29°43' W 013°36'714.3
2017-Oct-17 00:00N 29°48' W 013°30'714.3
2017-Oct-16 23:30N 29°53' W 013°24'714.2
2017-Oct-16 23:00N 29°58' W 013°18'714.2
2017-Oct-16 22:30N 30°03' W 013°12'714.1
2017-Oct-16 22:00N 30°08' W 013°07'714.1
2017-Oct-16 21:30N 30°13' W 013°01'713.9
2017-Oct-16 21:00N 30°18' W 012°55'713.7
2017-Oct-16 20:31N 30°23' W 012°50'714.0
2017-Oct-16 20:01N 30°28' W 012°44'714.0
2017-Oct-16 19:30N 30°33' W 012°38'714.0
2017-Oct-16 19:00N 30°38' W 012°32'714.1
2017-Oct-16 18:30N 30°43' W 012°27'714.3
2017-Oct-16 18:00N 30°48' W 012°21'1114.2
2017-Oct-16 17:12N 30°56' W 012°12'314.0
2017-Oct-16 17:00N 30°58' W 012°09'714.0
2017-Oct-16 16:30N 31°03' W 012°03'7014.8
2017-Oct-16 11:49N 31°52' W 011°06'814.3
2017-Oct-16 11:17N 31°58' W 010°60'2214.0
2017-Oct-16 09:43N 32°14' W 010°42'514.1
2017-Oct-16 09:23N 32°17' W 010°38'22314.5
2017-Oct-15 18:03N 34°55' W 007°30'614.8
2017-Oct-15 17:37N 34°60' W 007°25'214.8
2017-Oct-15 17:30N 35°01' W 007°23'714.6
2017-Oct-15 17:00N 35°06' W 007°17'1614.7
2017-Oct-15 15:54N 35°18' W 007°03'614.7
2017-Oct-15 15:31N 35°22' W 006°58'714.6
2017-Oct-15 15:01N 35°27' W 006°52'1514.7
2017-Oct-15 13:59N 35°37' W 006°38'1014.6
2017-Oct-15 13:18N 35°45' W 006°31'1614.5
2017-Oct-15 12:10N 35°56' W 006°16'312.9
2017-Oct-15 11:54N 35°57' W 006°12'3014.4
2017-Oct-15 09:48N 35°57' W 005°35'415.4
2017-Oct-15 09:30N 35°59' W 005°29'714.3
2017-Oct-15 09:00N 36°01' W 005°21'18313.8
2017-Oct-14 19:48N 36°47' W 001°41'1214.8
2017-Oct-14 18:58N 36°55' W 001°30'1314.8
2017-Oct-14 18:04N 37°04' W 001°17'414.9
2017-Oct-14 17:49N 37°07' W 001°14'514.7
2017-Oct-14 17:27N 37°10' W 001°09'714.6
2017-Oct-14 17:00N 37°14' W 001°02'714.6
2017-Oct-14 16:30N 37°19' W 000°55'714.5
2017-Oct-14 16:00N 37°24' W 000°48'714.5
2017-Oct-14 15:29N 37°29' W 000°41'714.6
2017-Oct-14 15:00N 37°33' W 000°35'714.6
2017-Oct-14 14:30N 37°39' W 000°30'714.7
2017-Oct-14 14:00N 37°46' W 000°24'814.8
2017-Oct-14 13:27N 37°52' W 000°19'30814.4
2017-Oct-13 16:08N 41°60' E 003°40'614.7
2017-Oct-13 15:44N 42°04' E 003°45'415.1
2017-Oct-13 15:27N 42°08' E 003°49'715.0
2017-Oct-13 15:00N 42°13' E 003°54'815.0
2017-Oct-13 14:29N 42°19' E 004°01'715.0
2017-Oct-13 14:00N 42°24' E 004°08'714.8
2017-Oct-13 13:30N 42°30' E 004°14'814.5
2017-Oct-13 12:59N 42°36' E 004°20'714.8
2017-Oct-13 12:30N 42°41' E 004°27'714.8
2017-Oct-13 12:00N 42°47' E 004°33'815.2
2017-Oct-13 11:30N 42°53' E 004°40'815.4
2017-Oct-13 11:00N 42°59' E 004°46'815.1
2017-Oct-13 10:30N 43°05' E 004°53'715.0
2017-Oct-13 10:01N 43°10' E 004°59'713.7
2017-Oct-13 09:30N 43°17' E 004°59'611.7
2017-Oct-13 09:00N 43°23' E 004°57'611.4
2017-Oct-13 08:30N 43°25' E 004°50'0 0.0
2017-Oct-12 17:14N 43°26' E 004°50'0 0.0
2017-Oct-12 16:47N 43°26' E 004°50'0 0.0
2017-Oct-12 16:23N 43°26' E 004°50'0 0.0
2017-Oct-12 15:56N 43°26' E 004°50'0 0.0
2017-Oct-12 15:29N 43°26' E 004°50'0 0.0
2017-Oct-12 14:59N 43°26' E 004°50'0 0.0
2017-Oct-12 14:23N 43°26' E 004°50'0 0.0
2017-Oct-12 13:14N 43°26' E 004°50'0 0.0
2017-Oct-12 12:59N 43°26' E 004°50'0 0.0
2017-Oct-12 11:38N 43°26' E 004°50'0 0.0
2017-Oct-12 11:24N 43°26' E 004°50'0 0.0
2017-Oct-12 11:00N 43°26' E 004°50'1 2.0
2017-Oct-12 10:30N 43°25' E 004°51'4 6.7
2017-Oct-12 09:59N 43°24' E 004°56'0 0.2
2017-Oct-12 09:29N 43°24' E 004°56'0 0.1
2017-Oct-12 08:59N 43°24' E 004°56'0 0.1
2017-Oct-12 08:29N 43°24' E 004°55'0 0.1
2017-Oct-12 07:59N 43°24' E 004°56'0 0.0
2017-Oct-12 07:29N 43°24' E 004°56'0 0.0
2017-Oct-12 06:59N 43°24' E 004°55'0 0.0
2017-Oct-12 05:59N 43°24' E 004°56'0 0.0
2017-Oct-12 05:26N 43°24' E 004°56'0 0.0
2017-Oct-12 04:50N 43°24' E 004°55'0 0.0
2017-Oct-12 04:26N 43°24' E 004°55'0 0.0
2017-Oct-12 03:50N 43°24' E 004°55'0 0.0
2017-Oct-12 03:29N 43°24' E 004°56'0 0.0
2017-Oct-12 02:41N 43°24' E 004°55'0 0.0
2017-Oct-12 02:26N 43°24' E 004°55'0 0.0
2017-Oct-12 01:53N 43°24' E 004°56'0 0.0
2017-Oct-12 00:56N 43°24' E 004°55'0 0.0
2017-Oct-12 00:23N 43°24' E 004°55'0 0.0
2017-Oct-11 23:56N 43°24' E 004°55'0 0.0
2017-Oct-11 23:23N 43°24' E 004°55'0 0.0
2017-Oct-11 22:35N 43°24' E 004°55'0 0.0
2017-Oct-11 22:29N 43°24' E 004°55'0 0.0
2017-Oct-11 21:59N 43°24' E 004°55'0 0.1
2017-Oct-11 21:27N 43°24' E 004°56'510.1
2017-Oct-11 21:00N 43°20' E 004°59'36114.9
2017-Oct-10 20:45N 38°28' E 000°18'414.9
2017-Oct-10 20:30N 38°26' E 000°14'4014.7
2017-Oct-10 17:48N 37°53' W 000°14'814.7
2017-Oct-10 17:17N 37°47' W 000°19'414.7
2017-Oct-10 17:01N 37°43' W 000°22'714.6
2017-Oct-10 16:31N 37°37' W 000°27'714.4
2017-Oct-10 16:00N 37°32' W 000°33'714.5
2017-Oct-10 15:30N 37°27' W 000°40'714.7
2017-Oct-10 15:00N 37°22' W 000°47'30813.7
2017-Oct-09 16:32N 35°29' W 006°42'013.5
2017-Oct-09 16:30N 35°28' W 006°43'713.4
2017-Oct-09 16:00N 35°23' W 006°48'713.4
2017-Oct-09 15:30N 35°18' W 006°54'713.5
2017-Oct-09 15:00N 35°14' W 006°59'713.3
2017-Oct-09 14:30N 35°09' W 007°05'713.8
2017-Oct-09 13:59N 35°04' W 007°11'9914.1
2017-Oct-09 07:00N 33°50' W 008°31'  

Dump ship's entire track history